Latest Weather Observations for Dartmoor

IDV60801

Issued at 1:05 pm EST Saturday 26 July 2014 (issued every 30 minutes, with the page automatically refreshed every 10 minutes)

About weather observations | Map of weather stations | Latest weather observations for VIC | Other Formats
Station Details ID: 090194 Name: DARTMOOR Lat: -37.92 Lon: 141.26 Height: 51.0 m
Data from the previous 72 hours. | See also: Recent months at Dartmoor
Date/Time
EST
Temp
°C
App
Temp
°C
Dew
Point
Rel
Hum
%
Delta-T
°C
Wind Press
QNH
hPa
Press
MSL
hPa
Rain
since 9 am
mm
Dir
 
Spd
km/h
Gust
km/h
Spd
kts
Gust
kts
26/01:00pm 14.4 12.4 11.6 83 1.5 WSW 13 20 7 11 1024.4 1024.5 0.0
26/12:30pm 14.4 12.7 12.6 89 1.0 W 13 20 7 11 1024.6 - 0.0
26/12:00pm 14.0 12.8 14.0 100 0.0 W 13 20 7 11 1025.0 1025.1 0.0
26/11:30am 12.4 11.8 12.4 100 0.0 W 7 11 4 6 1025.3 - 0.0
26/11:00am 11.4 10.5 11.4 100 0.0 WNW 7 11 4 6 1025.3 1025.4 0.0
26/10:30am 11.1 10.1 11.1 100 0.0 WNW 7 11 4 6 1025.2 - 0.0
26/10:00am 10.6 9.5 10.6 100 0.0 WNW 7 11 4 6 1025.0 1025.1 0.0
26/09:30am 10.1 8.8 10.1 100 0.0 NW 7 11 4 6 1024.7 - 0.0
26/09:00am 9.1 7.6 9.1 100 0.0 NW 7 9 4 5 1024.4 1024.5 0.4
26/08:30am 8.8 7.2 8.8 100 0.0 NNW 7 9 4 5 1024.1 - 0.4
26/08:00am 8.5 6.8 8.5 100 0.0 NNW 7 9 4 5 1023.9 1024.0 0.4
26/07:30am 7.6 5.7 7.6 100 0.0 NNW 7 9 4 5 1023.5 - 0.4
26/07:00am 8.3 6.2 8.3 100 0.0 NW 9 11 5 6 1023.2 1023.3 0.4
26/06:30am 8.6 7.0 8.6 100 0.0 NW 7 9 4 5 1022.9 - 0.4
26/06:00am 8.3 6.6 8.3 100 0.0 NNW 7 9 4 5 1022.5 1022.6 0.4
26/05:30am 8.6 6.6 8.6 100 0.0 NW 9 11 5 6 1022.3 - 0.4
26/05:00am 9.2 7.9 9.2 100 0.0 WNW 6 7 3 4 1022.0 1022.1 0.4
26/04:30am 9.4 8.2 9.4 100 0.0 NW 6 7 3 4 1021.8 - 0.4
26/04:00am 9.3 7.8 9.3 100 0.0 NNW 7 9 4 5 1021.6 1021.7 0.4
26/03:30am 9.7 8.3 9.7 100 0.0 NNW 7 9 4 5 1021.4 - 0.4
26/03:00am 9.7 8.3 9.7 100 0.0 NNW 7 7 4 4 1021.4 1021.5 0.2
26/02:30am 9.3 7.8 9.3 100 0.0 NNW 7 9 4 5 1021.2 - 0.2
26/02:00am 9.0 7.5 9.0 100 0.0 NW 7 7 4 4 1021.0 1021.1 0.2
26/01:30am 8.6 7.1 8.6 100 0.0 NW 6 7 3 4 1020.8 - 0.2
26/01:00am 8.5 6.8 8.5 100 0.0 NW 7 9 4 5 1020.8 1020.9 0.2
26/12:30am 8.9 7.5 8.9 100 0.0 NW 6 7 3 4 1020.6 - 0.2
26/12:00am 9.0 7.5 9.0 100 0.0 NNW 7 9 4 5 1020.6 1020.7 0.2
 
Date/Time
EST
Temp
°C
App
Temp
°C
Dew
Point
Rel
Hum
%
Delta-T
°C
Wind Press
QNH
hPa
Press
MSL
hPa
Rain
since 9 am
mm
Dir
 
Spd
km/h
Gust
km/h
Spd
kts
Gust
kts
25/11:30pm 9.6 8.2 9.6 100 0.0 NW 7 7 4 4 1020.3 - 0.2
25/11:00pm 9.5 8.1 9.5 100 0.0 NW 7 9 4 5 1020.2 1020.3 0.2
25/10:30pm 9.8 8.1 9.8 100 0.0 WNW 9 11 5 6 1020.1 - 0.2
25/10:00pm 10.4 8.1 10.4 100 0.0 NW 13 17 7 9 1019.9 1020.0 0.2
25/09:30pm 10.9 9.1 10.9 100 0.0 WNW 11 15 6 8 1019.7 - 0.2
25/09:00pm 10.8 9.4 10.8 100 0.0 NNW 9 11 5 6 1019.5 1019.6 0.2
25/08:30pm 10.9 9.5 10.9 100 0.0 NW 9 13 5 7 1019.3 - 0.2
25/08:00pm 11.0 10.2 11.0 100 0.0 NW 6 7 3 4 1018.9 1019.0 0.2
25/07:30pm 11.4 11.1 11.4 100 0.0 WNW 4 7 2 4 1018.7 - 0.2
25/07:00pm 11.4 10.1 11.4 100 0.0 WNW 9 13 5 7 1018.1 1018.2 0.2
25/06:30pm 11.2 9.9 11.2 100 0.0 NW 9 13 5 7 1017.6 - 0.2
25/06:00pm 11.8 10.7 11.8 100 0.0 WNW 9 13 5 7 1017.3 1017.4 0.2
25/05:30pm 12.5 11.2 12.5 100 0.0 WNW 11 15 6 8 1016.9 - 0.2
25/05:00pm 12.8 12.3 12.8 100 0.0 W 7 11 4 6 1016.6 1016.7 0.2
25/04:30pm 13.0 12.2 13.0 100 0.0 WNW 9 11 5 6 1016.0 - 0.2
25/04:00pm 13.3 12.3 13.3 100 0.0 WNW 11 19 6 10 1015.9 1016.0 0.2
25/03:30pm 13.7 12.7 13.4 98 0.2 W 11 22 6 12 1015.6 - 0.2
25/03:00pm 13.8 12.5 13.6 99 0.1 W 13 19 7 10 1015.1 1015.2 0.2
25/02:30pm 13.7 12.4 13.7 100 0.0 WNW 13 20 7 11 1014.8 - 0.2
25/02:00pm 13.7 12.2 13.2 97 0.3 WNW 13 26 7 14 1014.6 1014.7 0.2
25/01:30pm 14.1 11.8 13.0 93 0.6 W 17 30 9 16 1014.6 - 0.2
25/01:00pm 14.4 14.1 14.4 100 0.0 W 9 17 5 9 1014.5 1014.6 0.2
25/12:30pm 13.2 11.7 13.2 100 0.0 WSW 13 20 7 11 1014.7 - 0.2
25/12:00pm 14.0 12.8 14.0 100 0.0 WNW 13 20 7 11 1014.6 1014.7 0.2
25/11:30am 13.3 11.5 13.3 100 0.0 WNW 15 24 8 13 1014.8 - 0.2
25/11:00am 12.5 11.2 12.5 100 0.0 NW 11 17 6 9 1014.7 1014.8 0.2
25/10:30am 12.7 11.1 12.7 100 0.0 NW 13 17 7 9 1014.4 - 0.2
25/10:00am 11.9 9.6 11.9 100 0.0 NNW 15 20 8 11 1014.0 1014.1 0.0
25/09:30am 11.8 9.5 11.8 100 0.0 NNW 15 20 8 11 1013.6 - 0.0
25/09:00am 11.4 9.0 11.4 100 0.0 NNW 15 22 8 12 1013.2 1013.3 6.4
25/08:30am 11.0 9.6 11.0 100 0.0 NNW 9 13 5 7 1013.0 - 6.4
25/08:00am 10.8 9.4 10.8 100 0.0 NNW 9 15 5 8 1012.5 1012.6 6.4
25/07:30am 10.9 9.5 10.9 100 0.0 NNW 9 15 5 8 1012.1 - 6.4
25/07:00am 10.9 9.1 10.9 100 0.0 N 11 17 6 9 1011.6 1011.7 6.4
25/06:30am 10.8 9.0 10.8 100 0.0 N 11 17 6 9 1011.2 - 6.2
25/06:00am 11.0 8.9 11.0 100 0.0 NNW 13 17 7 9 1010.8 1010.8 6.2
25/05:30am 11.0 8.9 11.0 100 0.0 N 13 17 7 9 1010.4 - 6.2
25/05:00am 11.1 9.4 11.1 100 0.0 N 11 19 6 10 1010.1 1010.1 6.2
25/04:30am 11.1 9.4 11.1 100 0.0 N 11 17 6 9 1009.9 - 6.2
25/04:00am 11.1 10.1 11.1 100 0.0 N 7 13 4 7 1009.9 1009.9 6.2
25/03:30am 11.1 10.1 11.1 100 0.0 N 7 11 4 6 1009.8 - 6.2
25/03:00am 11.1 10.1 11.1 100 0.0 N 7 13 4 7 1009.8 1009.8 5.0
25/02:30am 11.1 9.8 11.1 100 0.0 N 9 13 5 7 1009.6 - 5.0
25/02:00am 11.1 10.1 11.1 100 0.0 N 7 11 4 6 1009.5 1009.5 5.0
25/01:30am 11.1 9.8 11.1 100 0.0 N 9 13 5 7 1009.3 - 5.0
25/01:00am 11.0 9.6 11.0 100 0.0 N 9 15 5 8 1009.2 1009.2 5.0
25/12:30am 11.1 9.4 11.1 100 0.0 N 11 17 6 9 1009.2 - 5.0
25/12:00am 11.1 9.4 11.1 100 0.0 NNE 11 17 6 9 1009.2 1009.2 5.0
 
Date/Time
EST
Temp
°C
App
Temp
°C
Dew
Point
Rel
Hum
%
Delta-T
°C
Wind Press
QNH
hPa
Press
MSL
hPa
Rain
since 9 am
mm
Dir
 
Spd
km/h
Gust
km/h
Spd
kts
Gust
kts
24/11:30pm 11.0 9.2 11.0 100 0.0 NNE 11 19 6 10 1009.4 - 5.0
24/11:00pm 11.0 9.6 11.0 100 0.0 NNE 9 13 5 7 1009.4 1009.4 4.8
24/10:30pm 11.0 8.9 11.0 100 0.0 NE 13 22 7 12 1009.4 - 4.8
24/10:00pm 10.9 9.1 10.9 100 0.0 NNE 11 19 6 10 1009.5 1009.5 3.0
24/09:30pm 10.9 8.7 10.9 100 0.0 NE 13 17 7 9 1009.5 - 1.6
24/09:00pm 10.9 9.1 10.9 100 0.0 NE 11 17 6 9 1009.5 1009.5 1.4
24/08:30pm 10.9 8.7 10.9 100 0.0 NE 13 17 7 9 1009.5 - 1.2
24/08:00pm 10.5 8.6 10.5 100 0.0 NE 11 15 6 8 1009.3 1009.3 1.2
24/07:30pm 10.2 8.6 10.2 100 0.0 ENE 9 11 5 6 1009.2 - 1.2
24/07:00pm 10.6 8.7 10.6 100 0.0 ENE 11 15 6 8 1008.9 1008.9 1.2
24/06:30pm 10.6 9.5 10.6 100 0.0 ENE 7 13 4 7 1009.0 - 1.0
24/06:00pm 10.6 9.5 10.6 100 0.0 ENE 7 11 4 6 1008.7 1008.7 0.8
24/05:30pm 10.9 9.9 10.9 100 0.0 ENE 7 11 4 6 1008.5 - 0.8
24/05:00pm 11.1 10.3 11.1 100 0.0 E 6 9 3 5 1008.4 1008.4 0.8
24/04:30pm 11.2 9.9 11.2 100 0.0 ENE 9 15 5 8 1008.5 - 0.8
24/04:00pm 11.5 10.3 11.5 100 0.0 ENE 9 17 5 9 1008.3 1008.3 0.6
24/03:30pm 11.9 11.3 11.7 99 0.1 NE 6 11 3 6 1008.1 - 0.6
24/03:00pm 12.3 10.6 12.3 100 0.0 NE 13 20 7 11 1008.0 1008.0 0.6
24/02:30pm 12.3 11.3 12.3 100 0.0 E 9 15 5 8 1007.8 - 0.6
24/02:00pm 12.4 10.7 12.4 100 0.0 E 13 20 7 11 1008.2 1008.2 0.6
24/01:30pm 11.5 9.1 11.5 100 0.0 E 15 26 8 14 1008.6 - 0.6
24/01:00pm 11.1 9.4 11.1 100 0.0 E 11 17 6 9 1009.2 1009.2 0.6
24/12:30pm 10.5 8.2 10.5 100 0.0 E 13 20 7 11 1009.8 - 0.6
24/12:00pm 10.5 7.5 10.5 100 0.0 E 17 26 9 14 1010.1 1010.1 0.6
24/11:30am 10.1 7.3 10.1 100 0.0 E 15 24 8 13 1010.7 - 0.6
24/11:00am 9.7 7.2 9.7 100 0.0 E 13 19 7 10 1011.2 1011.2 0.6
24/10:30am 9.4 6.8 9.4 100 0.0 E 13 22 7 12 1011.4 - 0.6
24/10:00am 9.2 6.6 9.2 100 0.0 E 13 20 7 11 1011.6 1011.7 0.4
24/09:30am 9.0 6.3 9.0 100 0.0 E 13 19 7 10 1011.9 - 0.4
24/09:00am 9.0 6.7 9.0 100 0.0 E 11 17 6 9 1012.0 1012.1 5.0
24/08:30am 8.9 6.2 8.9 100 0.0 ENE 13 19 7 10 1012.3 - 4.6
24/08:00am 8.8 6.4 8.8 100 0.0 ENE 11 17 6 9 1012.1 1012.2 3.8
24/07:30am 8.8 6.4 8.8 100 0.0 ENE 11 17 6 9 1012.1 - 3.4
24/07:00am 8.7 6.7 8.7 100 0.0 E 9 13 5 7 1012.0 1012.1 3.4
24/06:30am 8.6 5.8 8.6 100 0.0 ENE 13 19 7 10 1011.9 - 3.2
24/06:00am 8.5 6.5 8.5 100 0.0 ENE 9 13 5 7 1012.0 1012.1 3.0
24/05:30am 8.3 5.8 8.3 100 0.0 ENE 11 15 6 8 1012.1 - 2.8
24/05:00am 7.9 5.7 7.9 100 0.0 E 9 11 5 6 1012.3 1012.4 2.6
24/04:30am 7.6 5.7 7.6 100 0.0 ENE 7 11 4 6 1012.8 - 2.2
24/04:00am 6.7 5.9 6.7 100 0.0 CALM 0 0 0 0 1013.3 1013.4 1.4
24/03:30am 6.5 5.7 6.5 100 0.0 CALM 0 0 0 0 1013.5 - 0.8
24/03:00am 6.6 5.8 6.6 100 0.0 CALM 0 0 0 0 1013.8 1013.9 0.8
24/02:30am 6.8 6.1 6.8 100 0.0 CALM 0 2 0 1 1013.8 - 0.4
24/02:00am 6.7 5.9 6.7 100 0.0 CALM 0 0 0 0 1014.1 1014.2 0.2
24/01:30am 6.7 5.9 6.7 100 0.0 CALM 0 0 0 0 1014.4 - 0.0
24/01:00am 6.7 5.9 6.6 99 0.0 CALM 0 0 0 0 1014.8 1014.9 0.0
24/12:30am 7.0 6.3 6.9 99 0.0 CALM 0 0 0 0 1015.0 - 0.0
24/12:00am 7.2 6.5 6.9 98 0.1 CALM 0 0 0 0 1015.2 1015.3 0.0
 
Date/Time
EST
Temp
°C
App
Temp
°C
Dew
Point
Rel
Hum
%
Delta-T
°C
Wind Press
QNH
hPa
Press
MSL
hPa
Rain
since 9 am
mm
Dir
 
Spd
km/h
Gust
km/h
Spd
kts
Gust
kts
23/11:30pm 7.4 6.7 7.0 97 0.2 CALM 0 0 0 0 1015.4 - 0.0
23/11:00pm 7.5 5.5 6.9 96 0.3 E 7 7 4 4 1015.4 1015.5 0.0
23/10:30pm 7.9 5.8 6.8 93 0.5 E 7 7 4 4 1015.5 - 0.0
23/10:00pm 8.0 6.0 7.2 95 0.4 E 7 11 4 6 1015.7 1015.8 0.0
23/09:30pm 7.8 5.1 7.4 97 0.2 ENE 11 15 6 8 1015.9 - 0.0
23/09:00pm 7.6 5.3 7.5 99 0.0 E 9 13 5 7 1016.3 1016.4 0.0
23/08:30pm 7.3 4.6 7.2 99 0.0 ENE 11 13 6 7 1016.6 - 0.0
23/08:00pm 7.0 4.6 6.9 99 0.0 ENE 9 13 5 7 1017.0 1017.1 0.0
23/07:30pm 6.7 4.6 6.6 99 0.0 ENE 7 7 4 4 1017.0 - 0.0
23/07:00pm 7.1 5.2 6.8 98 0.1 ENE 6 7 3 4 1017.2 1017.3 0.0
23/06:30pm 7.4 5.3 6.7 95 0.3 ENE 7 9 4 5 1017.2 - 0.0
23/06:00pm 7.8 5.3 6.6 92 0.6 ENE 9 13 5 7 1017.1 1017.2 0.0
23/05:30pm 8.5 6.4 6.8 89 0.8 NE 7 9 4 5 1017.5 - 0.0
23/05:00pm 9.0 7.2 7.0 87 0.9 N 6 7 3 4 1017.7 1017.8 0.0
23/04:30pm 9.8 7.2 6.3 79 1.6 NNE 9 11 5 6 1017.6 - 0.0
23/04:00pm 10.5 8.1 7.0 79 1.7 NNE 9 13 5 7 1017.6 1017.7 0.0
23/03:30pm 10.9 9.1 8.1 83 1.4 N 7 11 4 6 1017.7 - 0.0
23/03:00pm 10.7 8.9 7.8 82 1.4 NNE 7 11 4 6 1017.8 1017.9 0.0
23/02:30pm 10.4 8.2 7.8 84 1.3 NNE 9 17 5 9 1018.0 - 0.0
23/02:00pm 10.3 8.8 9.2 93 0.5 N 7 11 4 6 1018.2 1018.3 0.0
23/01:30pm 10.2 8.2 10.1 99 0.1 NE 11 17 6 9 1018.4 - 0.0

Other Formats:

Comma delimited format used in spreadsheet applications
http://www.bom.gov.au/fwo/IDV60801/IDV60801.95822.axf

JavaScript Object Notation format (JSON) in row-major order
http://www.bom.gov.au/fwo/IDV60801/IDV60801.95822.json